createdAt,value
2023-01-13T00:06:41.502Z,19.40
2023-01-13T00:16:43.038Z,22.33
2023-01-13T00:26:44.584Z,24.13
2023-01-13T00:36:46.124Z,20.00
2023-01-13T00:46:47.865Z,21.58
2023-01-13T00:56:49.453Z,22.47
2023-01-13T01:06:51.312Z,25.43
2023-01-13T01:16:53.576Z,27.90
2023-01-13T01:26:55.137Z,24.40
2023-01-13T01:36:56.660Z,26.17
2023-01-13T01:46:58.396Z,26.77
2023-01-13T01:57:00.325Z,22.93
2023-01-13T02:07:03.760Z,22.20
2023-01-13T02:17:37.840Z,20.80
2023-01-13T02:28:05.613Z,20.27
2023-01-13T02:38:10.867Z,23.53
2023-01-13T02:48:15.214Z,20.50
2023-01-13T02:58:25.288Z,19.45
2023-01-13T03:08:54.808Z,21.87
2023-01-13T03:19:15.419Z,19.60
2023-01-13T03:29:22.698Z,21.73
2023-01-13T03:39:31.219Z,21.87
2023-01-13T03:49:47.002Z,26.27
2023-01-13T03:59:52.812Z,25.03
2023-01-13T04:10:00.350Z,27.57
2023-01-13T04:20:03.526Z,24.37
2023-01-13T04:30:07.561Z,23.73
2023-01-13T04:40:09.731Z,27.02
2023-01-13T04:50:11.670Z,20.77
2023-01-13T05:00:16.016Z,22.37
2023-01-13T05:10:19.822Z,25.10
2023-01-13T05:20:21.379Z,24.07
2023-01-13T05:30:26.162Z,23.52
2023-01-13T05:40:27.718Z,23.37
2023-01-13T05:50:29.300Z,24.17
2023-01-13T06:00:30.848Z,26.17
2023-01-13T06:10:33.383Z,26.50
2023-01-13T06:20:35.111Z,28.57
2023-01-13T06:30:44.464Z,26.47
2023-01-13T06:40:46.427Z,27.70
2023-01-13T06:50:47.956Z,27.95
2023-01-13T07:00:49.555Z,25.47
2023-01-13T07:10:51.412Z,29.23
2023-01-13T07:20:58.346Z,29.00
2023-01-13T07:31:00.721Z,34.37
2023-01-13T07:41:02.554Z,29.33
2023-01-13T07:51:09.235Z,30.17
2023-01-13T08:01:12.721Z,24.10
2023-01-13T08:11:14.350Z,27.42
2023-01-13T08:21:16.179Z,23.73
2023-01-13T08:31:18.292Z,23.63
2023-01-13T08:41:19.855Z,24.17
2023-01-13T08:51:21.382Z,27.90
2023-01-13T09:01:23.983Z,23.40
2023-01-13T09:11:31.052Z,25.80
2023-01-13T09:21:32.631Z,29.80
2023-01-13T09:31:34.262Z,33.77
2023-01-13T09:41:42.414Z,29.03
2023-01-13T09:51:46.995Z,30.98
2023-01-13T10:02:02.759Z,35.13
2023-01-13T10:12:14.577Z,36.90
2023-01-13T10:22:47.493Z,35.63
2023-01-13T10:32:56.921Z,37.80
2023-01-13T10:43:05.585Z,34.20
2023-01-13T10:53:24.533Z,38.30
2023-01-13T11:03:26.494Z,36.63
2023-01-13T11:13:43.172Z,36.83
2023-01-13T11:23:50.030Z,36.63
2023-01-13T11:33:57.319Z,41.78
2023-01-13T11:44:37.054Z,39.73
2023-01-13T11:55:01.353Z,39.27
2023-01-13T12:05:20.725Z,36.20
2023-01-13T12:15:22.345Z,34.87
2023-01-13T12:25:33.445Z,39.70
2023-01-13T12:35:57.217Z,35.50
2023-01-13T12:46:20.771Z,41.90
2023-01-13T12:56:28.096Z,41.33
2023-01-13T13:06:31.386Z,48.07
2023-01-13T13:16:44.850Z,43.35
2023-01-13T13:26:46.703Z,46.00
2023-01-13T13:37:00.902Z,34.87
2023-01-13T13:47:05.186Z,39.27
2023-01-13T13:57:16.729Z,38.47
2023-01-13T14:07:21.230Z,35.72
2023-01-13T14:17:26.719Z,48.10
2023-01-13T14:27:30.404Z,35.77
2023-01-13T14:37:40.987Z,35.53
2023-01-13T14:47:50.462Z,36.87
2023-01-13T14:57:52.091Z,40.58
2023-01-13T15:08:03.427Z,51.07
2023-01-13T15:18:13.815Z,49.20
2023-01-13T15:28:22.025Z,49.50
2023-01-13T15:38:24.505Z,51.67
2023-01-13T15:48:28.130Z,51.35
2023-01-13T15:58:29.692Z,55.77
2023-01-13T16:08:31.265Z,53.47
2023-01-13T16:18:32.815Z,67.00
2023-01-13T16:28:34.395Z,54.97
2023-01-13T16:38:54.521Z,53.45
2023-01-13T16:49:01.743Z,60.87
2023-01-13T16:59:12.340Z,64.50
2023-01-13T17:09:19.552Z,68.90
2023-01-13T17:19:22.106Z,60.97
2023-01-13T17:29:24.236Z,61.10
2023-01-13T17:39:26.721Z,59.90
2023-01-13T17:49:28.469Z,59.73
2023-01-13T17:59:30.001Z,61.57
2023-01-13T18:09:31.749Z,64.60
2023-01-13T18:19:33.263Z,65.10
2023-01-13T18:29:34.780Z,65.10
2023-01-13T18:39:36.552Z,69.80
2023-01-13T18:49:38.099Z,73.37
2023-01-13T18:59:39.907Z,67.83
2023-01-13T19:09:41.408Z,71.88
2023-01-13T19:19:45.613Z,76.37
2023-01-13T19:29:52.433Z,64.13
2023-01-13T19:39:54.368Z,64.20
2023-01-13T19:49:55.927Z,64.07
2023-01-13T19:59:57.468Z,63.45
2023-01-13T20:09:58.980Z,60.93
2023-01-13T20:20:00.519Z,63.03
2023-01-13T20:30:02.070Z,56.92
2023-01-13T20:40:05.417Z,44.73
2023-01-13T20:50:07.376Z,41.07
2023-01-13T21:00:09.514Z,37.28
2023-01-13T21:10:11.422Z,30.83
2023-01-13T21:20:14.344Z,34.83
2023-01-13T21:30:16.324Z,31.77
2023-01-13T21:40:18.020Z,29.87
2023-01-13T21:50:20.870Z,32.22
2023-01-13T22:00:26.529Z,25.53
2023-01-13T22:10:29.590Z,29.27
2023-01-13T22:20:31.102Z,34.47
2023-01-13T22:30:32.761Z,33.70
2023-01-13T22:40:34.298Z,33.13
2023-01-13T22:50:35.854Z,29.27
2023-01-13T23:00:37.412Z,30.03
2023-01-13T23:10:39.919Z,26.38
2023-01-13T23:20:41.412Z,28.27
2023-01-13T23:30:42.983Z,30.30
2023-01-13T23:40:45.361Z,30.00
2023-01-13T23:50:57.001Z,33.20
